Time;durP1;ratioP1;P1;durP2;ratioP2;P2;SDS_P1;SDS_P2;PMS_P1;PMS_P2;Temp;Humidity;BMP_temperature;BMP_pressure;BME280_temperature;BME280_humidity;BME280_pressure;Samples;Min_cycle;Max_cycle;Signal;HPM_P1;HPM_P2
2022/10/04 00:00:10;;;;;;;;;;;;;;;;;;350042;28;937;-62
2022/10/04 00:00:25;;;;;;;;;;;;;;;;;;349498;28;1618;-62
2022/10/04 00:00:35;;;;;;;;;;;;;;;;;;348741;28;916;-62
2022/10/04 00:00:46;;;;;;;;;;;;;;;;;;348681;28;992;-62
2022/10/04 00:01:14;;;;;;;;;;;;;;;;;;348706;28;925;-62
2022/10/04 00:01:26;;;;;;;;;;;;;;;;;;348738;28;877;-62
2022/10/04 00:01:59;;;;;;;;;;;;;;;;;;348699;28;1004;-62
2022/10/04 00:02:15;;;;;;;;;;;;;;;;;;345865;28;771;-62
2022/10/04 00:02:30;;;;;;;;;;;;;;;;;;347594;28;1080;-62
2022/10/04 00:02:44;;;;;;;;;;;;;;;;;;348751;28;858;-62
2022/10/04 00:03:03;;;;;;;;;;;;;;;;;;348720;28;978;-62
2022/10/04 00:03:31;;;;;;;;;;;;;;;;;;348723;28;1027;-62
2022/10/04 00:03:43;;;;;;;;;;;;;;;;;;348743;28;905;-62
2022/10/04 00:04:15;;;;;;;;;;;;;;;;;;348673;28;955;-62
2022/10/04 00:04:29;;;;;;;;;;;;;;;;;;348688;28;813;-62
2022/10/04 00:05:02;;;;;;;;;;;;;;;;;;348727;28;995;-62
2022/10/04 00:05:14;;;;;;;;;;;;;;;;;;348709;28;949;-62
2022/10/04 00:05:25;;;;;;;;;;;;;;;;;;348708;28;912;-62
2022/10/04 00:05:36;;;;;;;;;;;;;;;;;;348659;28;988;-62
2022/10/04 00:05:53;;;;;;;;;;;;;;;;;;348742;28;980;-62
2022/10/04 00:06:04;;;;;;;;;;;;;;;;;;348547;28;738;-62
2022/10/04 00:06:19;;;;;;;;;;;;;;;;;;348685;28;783;-62
2022/10/04 00:06:29;;;;;;;;;;;;;;;;;;348743;28;925;-62
2022/10/04 00:06:48;;;;;;;;;;;;;;;;;;348680;28;885;-62
2022/10/04 00:06:59;;;;;;;;;;;;;;;;;;348742;28;917;-62
2022/10/04 00:07:12;;;;;;;;;;;;;;;;;;348638;28;964;-62
2022/10/04 00:07:25;;;;;;;;;;;;;;;;;;348832;28;1508;-62
2022/10/04 00:07:46;;;;;;;;;;;;;;;;;;348955;28;1429;-62
2022/10/04 00:07:59;;;;;;;;;;;;;;;;;;349890;28;975;-62
2022/10/04 00:08:32;;;;;;;;;;;;;;;;;;349931;28;1038;-62
2022/10/04 00:08:49;;;;;;;;;;;;;;;;;;349985;28;972;-62
2022/10/04 00:09:05;;;;;;;;;;;;;;;;;;349969;28;1145;-62
2022/10/04 00:09:22;;;;;;;;;;;;;;;;;;350022;28;920;-62
2022/10/04 00:09:41;;;;;;;;;;;;;;;;;;348676;28;925;-62
2022/10/04 00:09:54;;;;;;;;;;;;;;;;;;348715;28;913;-62
2022/10/04 00:10:14;;;;;;;;;;;;;;;;;;348735;28;937;-62
2022/10/04 00:10:28;;;;;;;;;;;;;;;;;;348697;28;1020;-62
2022/10/04 00:10:38;;;;;;;;;;;;;;;;;;348717;28;984;-62
2022/10/04 00:10:49;;;;;;;;;;;;;;;;;;348723;28;949;-62
2022/10/04 00:11:00;;;;;;;;;;;;;;;;;;348745;28;798;-62
2022/10/04 00:11:28;;;;;;;;;;;;;;;;;;348659;28;905;-62
2022/10/04 00:11:42;;;;;;;;;;;;;;;;;;348714;28;917;-62
2022/10/04 00:11:54;;;;;;;;;;;;;;;;;;348682;28;1012;-62
2022/10/04 00:12:05;;;;;;;;;;;;;;;;;;348645;28;932;-62
2022/10/04 00:12:18;;;;;;;;;;;;;;;;;;348686;28;837;-62
2022/10/04 00:12:32;;;;;;;;;;;;;;;;;;348752;28;774;-62
2022/10/04 00:12:47;;;;;;;;;;;;;;;;;;348674;28;861;-62
2022/10/04 00:12:59;;;;;;;;;;;;;;;;;;348635;28;987;-62
2022/10/04 00:13:16;;;;;;;;;;;;;;;;;;348723;28;929;-62
2022/10/04 00:13:27;;;;;;;;;;;;;;;;;;349445;28;1215;-62
2022/10/04 00:13:39;;;;;;;;;;;;;;;;;;350133;28;1134;-62
2022/10/04 00:13:52;;;;;;;;;;;;;;;;;;350097;28;845;-62
2022/10/04 00:14:06;;;;;;;;;;;;;;;;;;350095;28;1204;-62
2022/10/04 00:14:23;;;;;;;;;;;;;;;;;;349407;28;1747;-62
2022/10/04 00:14:36;;;;;;;;;;;;;;;;;;350135;28;1003;-62
2022/10/04 00:14:47;;;;;;;;;;;;;;;;;;350031;28;904;-62
2022/10/04 00:14:59;;;;;;;;;;;;;;;;;;350144;28;959;-62
2022/10/04 00:15:24;;;;;;;;;;;;;;;;;;349235;28;1429;-62
2022/10/04 00:15:38;;;;;;;;;;;;;;;;;;348681;28;929;-62
2022/10/04 00:15:49;;;;;;;;;;;;;;;;;;348669;28;1147;-62
2022/10/04 00:16:00;;;;;;;;;;;;;;;;;;348664;28;933;-62
2022/10/04 00:16:17;;;;;;;;;;;;;;;;;;349274;28;1379;-62
2022/10/04 00:16:33;;;;;;;;;;;;;;;;;;350107;28;817;-62
2022/10/04 00:16:43;;;;;;;;;;;;;;;;;;349973;28;1965;-62
2022/10/04 00:16:55;;;;;;;;;;;;;;;;;;350115;28;1105;-62
2022/10/04 00:17:12;;;;;;;;;;;;;;;;;;350064;28;975;-62
2022/10/04 00:17:25;;;;;;;;;;;;;;;;;;350050;28;962;-62
2022/10/04 00:17:35;;;;;;;;;;;;;;;;;;350117;28;1023;-62
2022/10/04 00:18:05;;;;;;;;;;;;;;;;;;350083;28;1011;-62
2022/10/04 00:18:15;;;;;;;;;;;;;;;;;;350045;28;951;-62
2022/10/04 00:18:30;;;;;;;;;;;;;;;;;;350057;28;1004;-62
2022/10/04 00:18:44;;;;;;;;;;;;;;;;;;350040;28;964;-62
2022/10/04 00:19:20;;;;;;;;;;;;;;;;;;350100;28;987;-62
2022/10/04 00:19:38;;;;;;;;;;;;;;;;;;350114;28;908;-62
2022/10/04 00:19:49;;;;;;;;;;;;;;;;;;350080;28;932;-62
2022/10/04 00:20:00;;;;;;;;;;;;;;;;;;350059;28;937;-62
2022/10/04 00:20:55;;;;;;;;;;;;;;;;;;350087;28;928;-62
2022/10/04 00:21:06;;;;;;;;;;;;;;;;;;350096;28;994;-62
2022/10/04 00:21:16;;;;;;;;;;;;;;;;;;350068;28;801;-62
2022/10/04 00:21:47;;;;;;;;;;;;;;;;;;350097;28;936;-62
2022/10/04 00:22:11;;;;;;;;;;;;;;;;;;350035;28;995;-62
2022/10/04 00:22:28;;;;;;;;;;;;;;;;;;350065;28;706;-62
2022/10/04 00:22:58;;;;;;;;;;;;;;;;;;350017;28;965;-62
2022/10/04 00:23:23;;;;;;;;;;;;;;;;;;350053;28;1015;-62
2022/10/04 00:23:36;;;;;;;;;;;;;;;;;;350092;28;1003;-62
2022/10/04 00:23:47;;;;;;;;;;;;;;;;;;350078;28;1006;-63
2022/10/04 00:24:08;;;;;;;;;;;;;;;;;;350056;28;920;-62
2022/10/04 00:24:20;;;;;;;;;;;;;;;;;;350018;28;1139;-62
2022/10/04 00:24:31;;;;;;;;;;;;;;;;;;349921;28;1685;-62
2022/10/04 00:25:00;;;;;;;;;;;;;;;;;;350024;28;1432;-61
2022/10/04 00:25:16;;;;;;;;;;;;;;;;;;350093;28;964;-62
2022/10/04 00:25:35;;;;;;;;;;;;;;;;;;350041;28;1063;-62
2022/10/04 00:25:45;;;;;;;;;;;;;;;;;;350069;28;873;-62
2022/10/04 00:26:03;;;;;;;;;;;;;;;;;;350106;28;991;-62
2022/10/04 00:26:33;;;;;;;;;;;;;;;;;;350097;28;849;-62
2022/10/04 00:26:43;;;;;;;;;;;;;;;;;;350100;28;924;-62
2022/10/04 00:27:11;;;;;;;;;;;;;;;;;;350028;28;917;-62
2022/10/04 00:27:23;;;;;;;;;;;;;;;;;;350046;28;967;-62
2022/10/04 00:27:34;;;;;;;;;;;;;;;;;;350056;28;790;-62
2022/10/04 00:28:03;;;;;;;;;;;;;;;;;;350107;28;825;-62
2022/10/04 00:28:16;;;;;;;;;;;;;;;;;;350050;28;964;-62
2022/10/04 00:28:35;;;;;;;;;;;;;;;;;;350111;28;968;-62
2022/10/04 00:28:46;;;;;;;;;;;;;;;;;;350079;28;972;-62
2022/10/04 00:28:56;;;;;;;;;;;;;;;;;;350050;28;876;-62
2022/10/04 00:29:26;;;;;;;;;;;;;;;;;;350068;28;988;-62
2022/10/04 00:29:38;;;;;;;;;;;;;;;;;;348430;28;1004;-62
2022/10/04 00:30:01;;;;;;;;;;;;;;;;;;348442;28;956;-62
2022/10/04 00:30:15;;;;;;;;;;;;;;;;;;348657;28;878;-62
2022/10/04 00:30:34;;;;;;;;;;;;;;;;;;348694;28;940;-62
2022/10/04 00:30:44;;;;;;;;;;;;;;;;;;348668;28;1008;-62
2022/10/04 00:31:11;;;;;;;;;;;;;;;;;;348715;28;949;-62
2022/10/04 00:31:23;;;;;;;;;;;;;;;;;;348643;28;960;-62
2022/10/04 00:31:53;;;;;;;;;;;;;;;;;;348701;28;937;-62
2022/10/04 00:32:06;;;;;;;;;;;;;;;;;;348647;28;929;-62
2022/10/04 00:32:25;;;;;;;;;;;;;;;;;;348477;28;1161;-62
2022/10/04 00:32:38;;;;;;;;;;;;;;;;;;348643;28;1063;-62
2022/10/04 00:33:01;;;;;;;;;;;;;;;;;;349636;28;1347;-62
2022/10/04 00:33:32;;;;;;;;;;;;;;;;;;351351;28;1040;-62
2022/10/04 00:33:42;;;;;;;;;;;;;;;;;;351250;28;1026;-62
2022/10/04 00:34:15;;;;;;;;;;;;;;;;;;351474;28;897;-62
2022/10/04 00:34:25;;;;;;;;;;;;;;;;;;351429;28;1027;-62
2022/10/04 00:34:49;;;;;;;;;;;;;;;;;;351436;28;1003;-62
2022/10/04 00:34:59;;;;;;;;;;;;;;;;;;351476;28;881;-62
2022/10/04 00:35:25;;;;;;;;;;;;;;;;;;351402;28;988;-62
2022/10/04 00:35:35;;;;;;;;;;;;;;;;;;351447;28;936;-62
2022/10/04 00:35:46;;;;;;;;;;;;;;;;;;351411;28;928;-62
2022/10/04 00:35:56;;;;;;;;;;;;;;;;;;351493;28;1051;-62
2022/10/04 00:36:27;;;;;;;;;;;;;;;;;;351479;28;983;-62
2022/10/04 00:36:44;;;;;;;;;;;;;;;;;;351321;28;1910;-62
2022/10/04 00:36:55;;;;;;;;;;;;;;;;;;351380;28;908;-62
2022/10/04 00:37:13;;;;;;;;;;;;;;;;;;351424;28;995;-62
2022/10/04 00:37:24;;;;;;;;;;;;;;;;;;351399;28;971;-62
2022/10/04 00:38:00;;;;;;;;;;;;;;;;;;351470;28;1007;-62
2022/10/04 00:38:15;;;;;;;;;;;;;;;;;;349216;28;1066;-62
2022/10/04 00:38:28;;;;;;;;;;;;;;;;;;351526;28;892;-62
2022/10/04 00:38:38;;;;;;;;;;;;;;;;;;351460;28;821;-62
2022/10/04 00:39:02;;;;;;;;;;;;;;;;;;349523;28;1473;-62
2022/10/04 00:39:16;;;;;;;;;;;;;;;;;;350032;28;916;-62
2022/10/04 00:39:32;;;;;;;;;;;;;;;;;;350033;28;968;-62
2022/10/04 00:39:44;;;;;;;;;;;;;;;;;;350025;28;841;-62
2022/10/04 00:40:00;;;;;;;;;;;;;;;;;;350088;28;911;-62
2022/10/04 00:40:13;;;;;;;;;;;;;;;;;;349980;28;1100;-62
2022/10/04 00:40:26;;;;;;;;;;;;;;;;;;350087;28;786;-62
2022/10/04 00:40:39;;;;;;;;;;;;;;;;;;350048;28;952;-62
2022/10/04 00:40:54;;;;;;;;;;;;;;;;;;350069;28;805;-62
2022/10/04 00:41:06;;;;;;;;;;;;;;;;;;350023;28;932;-62
2022/10/04 00:41:16;;;;;;;;;;;;;;;;;;350062;28;800;-62
2022/10/04 00:41:27;;;;;;;;;;;;;;;;;;350036;28;971;-63
2022/10/04 00:41:53;;;;;;;;;;;;;;;;;;350003;28;1022;-62
2022/10/04 00:42:09;;;;;;;;;;;;;;;;;;350107;28;794;-62
2022/10/04 00:42:37;;;;;;;;;;;;;;;;;;350055;28;1016;-62
2022/10/04 00:42:51;;;;;;;;;;;;;;;;;;350001;28;850;-62
2022/10/04 00:43:05;;;;;;;;;;;;;;;;;;350123;28;904;-62
2022/10/04 00:43:21;;;;;;;;;;;;;;;;;;349993;28;1065;-62
2022/10/04 00:43:41;;;;;;;;;;;;;;;;;;350035;28;765;-62
2022/10/04 00:43:52;;;;;;;;;;;;;;;;;;350012;28;932;-62
2022/10/04 00:44:05;;;;;;;;;;;;;;;;;;350079;28;960;-62
2022/10/04 00:44:21;;;;;;;;;;;;;;;;;;349639;28;1449;-62
2022/10/04 00:44:31;;;;;;;;;;;;;;;;;;350081;28;940;-62
2022/10/04 00:44:45;;;;;;;;;;;;;;;;;;350024;28;967;-62
2022/10/04 00:44:58;;;;;;;;;;;;;;;;;;350065;28;944;-62
2022/10/04 00:45:22;;;;;;;;;;;;;;;;;;350001;28;980;-62
2022/10/04 00:45:36;;;;;;;;;;;;;;;;;;349997;28;940;-62
2022/10/04 00:45:54;;;;;;;;;;;;;;;;;;350006;28;987;-62
2022/10/04 00:46:05;;;;;;;;;;;;;;;;;;350052;28;1226;-62
2022/10/04 00:46:21;;;;;;;;;;;;;;;;;;350071;28;936;-62
2022/10/04 00:46:32;;;;;;;;;;;;;;;;;;350018;28;972;-62
2022/10/04 00:46:43;;;;;;;;;;;;;;;;;;350044;28;980;-62
2022/10/04 00:46:55;;;;;;;;;;;;;;;;;;349951;28;1380;-62
2022/10/04 00:47:18;;;;;;;;;;;;;;;;;;350072;28;788;-62
2022/10/04 00:47:40;;;;;;;;;;;;;;;;;;350069;28;912;-62
2022/10/04 00:47:57;;;;;;;;;;;;;;;;;;350068;28;913;-62
2022/10/04 00:48:07;;;;;;;;;;;;;;;;;;350078;28;1027;-62
2022/10/04 00:48:29;;;;;;;;;;;;;;;;;;350029;28;928;-62
2022/10/04 00:48:45;;;;;;;;;;;;;;;;;;350091;28;821;-62
2022/10/04 00:49:01;;;;;;;;;;;;;;;;;;350024;28;905;-62
2022/10/04 00:49:12;;;;;;;;;;;;;;;;;;350020;28;838;-62
2022/10/04 00:49:27;;;;;;;;;;;;;;;;;;350045;28;887;-62
2022/10/04 00:49:40;;;;;;;;;;;;;;;;;;350064;28;987;-62
2022/10/04 00:49:54;;;;;;;;;;;;;;;;;;349989;28;1003;-62
2022/10/04 00:50:17;;;;;;;;;;;;;;;;;;350039;28;980;-62
2022/10/04 00:50:32;;;;;;;;;;;;;;;;;;350097;28;824;-62
2022/10/04 00:50:50;;;;;;;;;;;;;;;;;;350044;28;991;-62
2022/10/04 00:51:32;;;;;;;;;;;;;;;;;;350041;28;776;-62
2022/10/04 00:51:45;;;;;;;;;;;;;;;;;;348501;28;936;-62
2022/10/04 00:52:00;;;;;;;;;;;;;;;;;;348357;28;1039;-62
2022/10/04 00:52:17;;;;;;;;;;;;;;;;;;348412;28;1821;-62
2022/10/04 00:52:29;;;;;;;;;;;;;;;;;;348515;28;888;-62
2022/10/04 00:52:43;;;;;;;;;;;;;;;;;;348516;28;1043;-62
2022/10/04 00:52:55;;;;;;;;;;;;;;;;;;348552;28;886;-63
2022/10/04 00:53:17;;;;;;;;;;;;;;;;;;350075;28;892;-62
2022/10/04 00:53:37;;;;;;;;;;;;;;;;;;350080;28;861;-62
2022/10/04 00:53:50;;;;;;;;;;;;;;;;;;349996;28;869;-62
2022/10/04 00:54:07;;;;;;;;;;;;;;;;;;349968;28;1031;-62
2022/10/04 00:54:25;;;;;;;;;;;;;;;;;;349775;28;1559;-62
2022/10/04 00:54:40;;;;;;;;;;;;;;;;;;349966;28;941;-62
2022/10/04 00:54:53;;;;;;;;;;;;;;;;;;350057;28;968;-62
2022/10/04 00:55:06;;;;;;;;;;;;;;;;;;349996;28;953;-62
2022/10/04 00:55:21;;;;;;;;;;;;;;;;;;349992;28;1015;-62
2022/10/04 00:55:35;;;;;;;;;;;;;;;;;;349247;28;1297;-62
2022/10/04 00:55:48;;;;;;;;;;;;;;;;;;350021;28;924;-62
2022/10/04 00:56:00;;;;;;;;;;;;;;;;;;349899;28;971;-62
2022/10/04 00:56:14;;;;;;;;;;;;;;;;;;349942;28;942;-62
2022/10/04 00:56:31;;;;;;;;;;;;;;;;;;350031;28;782;-62
2022/10/04 00:57:16;;;;;;;;;;;;;;;;;;349946;28;1910;-62
2022/10/04 00:57:29;;;;;;;;;;;;;;;;;;347077;28;798;-62
2022/10/04 00:57:44;;;;;;;;;;;;;;;;;;347019;28;1421;-63
2022/10/04 00:57:58;;;;;;;;;;;;;;;;;;347140;28;873;-62
2022/10/04 00:58:16;;;;;;;;;;;;;;;;;;346988;28;854;-62
2022/10/04 00:58:34;;;;;;;;;;;;;;;;;;347108;28;905;-62
2022/10/04 00:59:02;;;;;;;;;;;;;;;;;;347097;28;975;-62
2022/10/04 00:59:12;;;;;;;;;;;;;;;;;;347066;28;1008;-62
2022/10/04 00:59:34;;;;;;;;;;;;;;;;;;347112;28;854;-62
2022/10/04 00:59:50;;;;;;;;;;;;;;;;;;345691;28;956;-62
2022/10/04 01:00:03;;;;;;;;;;;;;;;;;;345743;28;949;-62
2022/10/04 01:00:15;;;;;;;;;;;;;;;;;;345773;28;972;-62
2022/10/04 01:00:28;;;;;;;;;;;;;;;;;;348594;28;952;-62
2022/10/04 01:00:39;;;;;;;;;;;;;;;;;;348600;28;987;-62
2022/10/04 01:00:52;;;;;;;;;;;;;;;;;;348659;28;830;-62
2022/10/04 01:01:03;;;;;;;;;;;;;;;;;;348669;28;818;-62
2022/10/04 01:01:16;;;;;;;;;;;;;;;;;;348598;28;786;-62
2022/10/04 01:01:27;;;;;;;;;;;;;;;;;;348646;28;909;-62
2022/10/04 01:01:38;;;;;;;;;;;;;;;;;;348650;28;937;-62
2022/10/04 01:01:50;;;;;;;;;;;;;;;;;;348663;28;959;-62
2022/10/04 01:02:04;;;;;;;;;;;;;;;;;;348638;28;976;-62
2022/10/04 01:02:26;;;;;;;;;;;;;;;;;;348554;28;1683;-62
2022/10/04 01:02:44;;;;;;;;;;;;;;;;;;348662;28;933;-61
2022/10/04 01:03:00;;;;;;;;;;;;;;;;;;348667;28;952;-62
2022/10/04 01:03:14;;;;;;;;;;;;;;;;;;348660;28;984;-62
2022/10/04 01:03:27;;;;;;;;;;;;;;;;;;348639;28;1004;-62
2022/10/04 01:03:40;;;;;;;;;;;;;;;;;;348687;28;873;-62
2022/10/04 01:03:52;;;;;;;;;;;;;;;;;;348414;28;1391;-62
2022/10/04 01:04:04;;;;;;;;;;;;;;;;;;348593;28;956;-62
2022/10/04 01:04:41;;;;;;;;;;;;;;;;;;348650;28;916;-62
2022/10/04 01:04:59;;;;;;;;;;;;;;;;;;346451;28;1036;-63
2022/10/04 01:05:14;;;;;;;;;;;;;;;;;;348688;28;1004;-62
2022/10/04 01:05:31;;;;;;;;;;;;;;;;;;348656;28;940;-62
2022/10/04 01:05:45;;;;;;;;;;;;;;;;;;348589;28;965;-62
2022/10/04 01:05:58;;;;;;;;;;;;;;;;;;348649;28;877;-62
2022/10/04 01:06:09;;;;;;;;;;;;;;;;;;348650;28;842;-62
2022/10/04 01:06:20;;;;;;;;;;;;;;;;;;348593;28;972;-62
2022/10/04 01:06:31;;;;;;;;;;;;;;;;;;348624;28;813;-62
2022/10/04 01:06:42;;;;;;;;;;;;;;;;;;348620;28;890;-62
2022/10/04 01:06:53;;;;;;;;;;;;;;;;;;348605;28;996;-62
2022/10/04 01:07:04;;;;;;;;;;;;;;;;;;349109;28;1454;-62
2022/10/04 01:07:17;;;;;;;;;;;;;;;;;;349723;28;1728;-62
2022/10/04 01:07:32;;;;;;;;;;;;;;;;;;350107;28;802;-62
2022/10/04 01:07:42;;;;;;;;;;;;;;;;;;350032;28;1020;-62
2022/10/04 01:07:55;;;;;;;;;;;;;;;;;;349974;28;983;-62
2022/10/04 01:08:10;;;;;;;;;;;;;;;;;;350026;28;1022;-62
2022/10/04 01:08:24;;;;;;;;;;;;;;;;;;349971;28;956;-62
2022/10/04 01:08:39;;;;;;;;;;;;;;;;;;350003;28;960;-62
2022/10/04 01:08:52;;;;;;;;;;;;;;;;;;350005;28;778;-62
2022/10/04 01:09:05;;;;;;;;;;;;;;;;;;350040;28;1023;-62
2022/10/04 01:09:16;;;;;;;;;;;;;;;;;;350009;28;908;-62
2022/10/04 01:09:28;;;;;;;;;;;;;;;;;;349979;28;932;-62
2022/10/04 01:09:45;;;;;;;;;;;;;;;;;;350000;28;794;-62
2022/10/04 01:10:00;;;;;;;;;;;;;;;;;;350027;28;988;-62
2022/10/04 01:10:18;;;;;;;;;;;;;;;;;;350076;28;793;-62
2022/10/04 01:10:35;;;;;;;;;;;;;;;;;;349973;28;944;-62
2022/10/04 01:10:54;;;;;;;;;;;;;;;;;;350021;28;904;-62
2022/10/04 01:11:09;;;;;;;;;;;;;;;;;;350009;28;1016;-62
2022/10/04 01:11:24;;;;;;;;;;;;;;;;;;350052;28;892;-62
2022/10/04 01:11:37;;;;;;;;;;;;;;;;;;350068;28;982;-62
2022/10/04 01:11:55;;;;;;;;;;;;;;;;;;350004;28;936;-62
2022/10/04 01:12:13;;;;;;;;;;;;;;;;;;350015;28;923;-62
2022/10/04 01:12:37;;;;;;;;;;;;;;;;;;349986;28;876;-62
2022/10/04 01:12:53;;;;;;;;;;;;;;;;;;350027;28;992;-62
2022/10/04 01:13:11;;;;;;;;;;;;;;;;;;350056;28;920;-62
2022/10/04 01:13:34;;;;;;;;;;;;;;;;;;349723;28;1400;-62
2022/10/04 01:13:49;;;;;;;;;;;;;;;;;;348635;28;928;-62
2022/10/04 01:14:03;;;;;;;;;;;;;;;;;;348628;28;924;-62
2022/10/04 01:14:19;;;;;;;;;;;;;;;;;;348513;28;1434;-62
2022/10/04 01:14:49;;;;;;;;;;;;;;;;;;349990;28;924;-62
2022/10/04 01:15:02;;;;;;;;;;;;;;;;;;349590;28;1868;-63
2022/10/04 01:15:21;;;;;;;;;;;;;;;;;;350020;28;912;-62
2022/10/04 01:15:49;;;;;;;;;;;;;;;;;;349986;28;987;-62
2022/10/04 01:16:12;;;;;;;;;;;;;;;;;;350001;28;928;-62
2022/10/04 01:16:27;;;;;;;;;;;;;;;;;;350052;28;1023;-62
2022/10/04 01:16:37;;;;;;;;;;;;;;;;;;349975;28;1131;-62
2022/10/04 01:16:50;;;;;;;;;;;;;;;;;;349927;28;1971;-62
2022/10/04 01:17:01;;;;;;;;;;;;;;;;;;349958;28;1003;-62
2022/10/04 01:17:11;;;;;;;;;;;;;;;;;;350040;28;893;-62
2022/10/04 01:17:21;;;;;;;;;;;;;;;;;;350011;28;996;-62
2022/10/04 01:17:32;;;;;;;;;;;;;;;;;;349944;28;904;-63
2022/10/04 01:18:02;;;;;;;;;;;;;;;;;;350044;28;987;-62
2022/10/04 01:18:18;;;;;;;;;;;;;;;;;;349870;28;1083;-62
2022/10/04 01:18:30;;;;;;;;;;;;;;;;;;349979;28;998;-62
2022/10/04 01:18:41;;;;;;;;;;;;;;;;;;350005;28;956;-62
2022/10/04 01:18:51;;;;;;;;;;;;;;;;;;349869;28;799;-62
2022/10/04 01:19:20;;;;;;;;;;;;;;;;;;349836;28;896;-62
2022/10/04 01:19:31;;;;;;;;;;;;;;;;;;349884;28;844;-62
2022/10/04 01:19:49;;;;;;;;;;;;;;;;;;349898;28;944;-62
2022/10/04 01:20:00;;;;;;;;;;;;;;;;;;349958;28;983;-62
2022/10/04 01:20:27;;;;;;;;;;;;;;;;;;349730;28;1380;-62
2022/10/04 01:20:54;;;;;;;;;;;;;;;;;;348552;28;901;-62
2022/10/04 01:21:06;;;;;;;;;;;;;;;;;;348554;28;916;-63
2022/10/04 01:21:20;;;;;;;;;;;;;;;;;;348613;28;1153;-62
2022/10/04 01:21:30;;;;;;;;;;;;;;;;;;348648;28;917;-62
2022/10/04 01:21:41;;;;;;;;;;;;;;;;;;348535;28;945;-62
2022/10/04 01:21:57;;;;;;;;;;;;;;;;;;348647;28;916;-62
2022/10/04 01:22:07;;;;;;;;;;;;;;;;;;348578;28;1015;-62
2022/10/04 01:22:35;;;;;;;;;;;;;;;;;;348620;28;849;-62
2022/10/04 01:22:49;;;;;;;;;;;;;;;;;;348621;28;920;-62
2022/10/04 01:22:59;;;;;;;;;;;;;;;;;;348580;28;952;-62
2022/10/04 01:23:09;;;;;;;;;;;;;;;;;;348609;28;960;-62
2022/10/04 01:23:46;;;;;;;;;;;;;;;;;;348586;28;917;-62
2022/10/04 01:23:56;;;;;;;;;;;;;;;;;;347377;28;1238;-62
2022/10/04 01:24:06;;;;;;;;;;;;;;;;;;348646;28;826;-62
2022/10/04 01:24:20;;;;;;;;;;;;;;;;;;348449;28;1629;-63
2022/10/04 01:24:37;;;;;;;;;;;;;;;;;;348640;28;925;-62
2022/10/04 01:24:47;;;;;;;;;;;;;;;;;;348601;28;866;-63
2022/10/04 01:24:57;;;;;;;;;;;;;;;;;;348627;28;908;-62
2022/10/04 01:25:08;;;;;;;;;;;;;;;;;;348604;28;968;-62
2022/10/04 01:25:37;;;;;;;;;;;;;;;;;;348594;28;893;-62
2022/10/04 01:25:49;;;;;;;;;;;;;;;;;;348551;28;960;-62
2022/10/04 01:26:00;;;;;;;;;;;;;;;;;;348596;28;916;-62
2022/10/04 01:26:25;;;;;;;;;;;;;;;;;;348694;28;769;-62
2022/10/04 01:26:38;;;;;;;;;;;;;;;;;;349844;28;1003;-62
2022/10/04 01:26:48;;;;;;;;;;;;;;;;;;349994;28;782;-62
2022/10/04 01:26:59;;;;;;;;;;;;;;;;;;350032;28;932;-62
2022/10/04 01:27:28;;;;;;;;;;;;;;;;;;350020;28;983;-62
2022/10/04 01:27:38;;;;;;;;;;;;;;;;;;348623;28;900;-62
2022/10/04 01:27:49;;;;;;;;;;;;;;;;;;348589;28;904;-62
2022/10/04 01:27:59;;;;;;;;;;;;;;;;;;348589;28;928;-62
2022/10/04 01:28:09;;;;;;;;;;;;;;;;;;348630;28;1015;-62
2022/10/04 01:28:20;;;;;;;;;;;;;;;;;;348616;28;905;-62
2022/10/04 01:28:31;;;;;;;;;;;;;;;;;;349483;28;1442;-62
2022/10/04 01:28:41;;;;;;;;;;;;;;;;;;349079;28;1418;-62
2022/10/04 01:28:52;;;;;;;;;;;;;;;;;;349942;28;948;-62
2022/10/04 01:29:05;;;;;;;;;;;;;;;;;;350022;28;845;-62
2022/10/04 01:29:17;;;;;;;;;;;;;;;;;;349370;28;1336;-62
2022/10/04 01:29:29;;;;;;;;;;;;;;;;;;349958;28;979;-62
2022/10/04 01:29:39;;;;;;;;;;;;;;;;;;349592;28;1414;-62
2022/10/04 01:29:49;;;;;;;;;;;;;;;;;;349959;28;926;-62
2022/10/04 01:30:00;;;;;;;;;;;;;;;;;;349927;28;1229;-62
2022/10/04 01:30:13;;;;;;;;;;;;;;;;;;349789;28;1406;-62
2022/10/04 01:30:23;;;;;;;;;;;;;;;;;;349330;28;1667;-62
2022/10/04 01:30:33;;;;;;;;;;;;;;;;;;349898;28;1503;-62
2022/10/04 01:30:43;;;;;;;;;;;;;;;;;;348877;28;1410;-62
2022/10/04 01:30:53;;;;;;;;;;;;;;;;;;349417;28;1430;-62
2022/10/04 01:31:04;;;;;;;;;;;;;;;;;;350041;28;873;-62
2022/10/04 01:31:15;;;;;;;;;;;;;;;;;;349971;28;893;-62
2022/10/04 01:31:26;;;;;;;;;;;;;;;;;;349896;28;936;-62
2022/10/04 01:31:39;;;;;;;;;;;;;;;;;;349977;28;1293;-62
2022/10/04 01:31:50;;;;;;;;;;;;;;;;;;350004;28;837;-62
2022/10/04 01:32:00;;;;;;;;;;;;;;;;;;349979;28;953;-63
2022/10/04 01:32:11;;;;;;;;;;;;;;;;;;349427;28;1441;-62
2022/10/04 01:32:21;;;;;;;;;;;;;;;;;;348120;28;1455;-62
2022/10/04 01:32:32;;;;;;;;;;;;;;;;;;349999;28;940;-62
2022/10/04 01:32:42;;;;;;;;;;;;;;;;;;348950;28;1688;-62
2022/10/04 01:32:53;;;;;;;;;;;;;;;;;;349900;28;1287;-62
2022/10/04 01:33:05;;;;;;;;;;;;;;;;;;349986;28;940;-62
2022/10/04 01:33:15;;;;;;;;;;;;;;;;;;350050;28;789;-62
2022/10/04 01:33:26;;;;;;;;;;;;;;;;;;349966;28;881;-63
2022/10/04 01:33:36;;;;;;;;;;;;;;;;;;347862;28;1368;-62
2022/10/04 01:33:46;;;;;;;;;;;;;;;;;;347991;28;956;-62
2022/10/04 01:33:58;;;;;;;;;;;;;;;;;;348544;28;904;-62
2022/10/04 01:34:12;;;;;;;;;;;;;;;;;;348612;28;937;-62
2022/10/04 01:34:23;;;;;;;;;;;;;;;;;;348565;28;985;-62
2022/10/04 01:34:34;;;;;;;;;;;;;;;;;;348601;28;787;-62
2022/10/04 01:34:44;;;;;;;;;;;;;;;;;;348607;28;984;-62
2022/10/04 01:34:54;;;;;;;;;;;;;;;;;;348580;28;956;-62
2022/10/04 01:35:10;;;;;;;;;;;;;;;;;;348613;28;901;-62
2022/10/04 01:35:20;;;;;;;;;;;;;;;;;;348595;28;885;-62
2022/10/04 01:35:30;;;;;;;;;;;;;;;;;;348592;28;1019;-63
2022/10/04 01:35:41;;;;;;;;;;;;;;;;;;348502;28;904;-63
2022/10/04 01:35:51;;;;;;;;;;;;;;;;;;348552;28;865;-62
2022/10/04 01:36:01;;;;;;;;;;;;;;;;;;348640;28;895;-62
2022/10/04 01:36:11;;;;;;;;;;;;;;;;;;348552;28;924;-62
2022/10/04 01:36:22;;;;;;;;;;;;;;;;;;348680;28;964;-62
2022/10/04 01:36:33;;;;;;;;;;;;;;;;;;348627;28;850;-62
2022/10/04 01:36:45;;;;;;;;;;;;;;;;;;348502;28;1910;-62
2022/10/04 01:36:58;;;;;;;;;;;;;;;;;;348550;28;929;-62
2022/10/04 01:37:08;;;;;;;;;;;;;;;;;;348587;28;857;-62
2022/10/04 01:37:18;;;;;;;;;;;;;;;;;;348609;28;952;-62
2022/10/04 01:37:28;;;;;;;;;;;;;;;;;;348571;28;928;-62
2022/10/04 01:37:38;;;;;;;;;;;;;;;;;;348583;28;917;-62
2022/10/04 01:37:49;;;;;;;;;;;;;;;;;;348574;28;953;-62
2022/10/04 01:37:59;;;;;;;;;;;;;;;;;;348536;28;959;-62
2022/10/04 01:38:11;;;;;;;;;;;;;;;;;;348614;28;1011;-62
2022/10/04 01:38:21;;;;;;;;;;;;;;;;;;348584;28;877;-62
2022/10/04 01:38:32;;;;;;;;;;;;;;;;;;348631;28;858;-62
2022/10/04 01:38:42;;;;;;;;;;;;;;;;;;348608;28;771;-62
2022/10/04 01:38:53;;;;;;;;;;;;;;;;;;348598;28;976;-62
2022/10/04 01:39:04;;;;;;;;;;;;;;;;;;348524;28;1116;-62
2022/10/04 01:39:15;;;;;;;;;;;;;;;;;;348621;28;821;-62
2022/10/04 01:39:27;;;;;;;;;;;;;;;;;;347818;28;1353;-62
2022/10/04 01:39:37;;;;;;;;;;;;;;;;;;347347;28;838;-63
2022/10/04 01:39:47;;;;;;;;;;;;;;;;;;347140;28;901;-62
2022/10/04 01:39:57;;;;;;;;;;;;;;;;;;347148;28;987;-62
2022/10/04 01:40:08;;;;;;;;;;;;;;;;;;347225;28;862;-62
2022/10/04 01:40:19;;;;;;;;;;;;;;;;;;347230;28;1109;-62
2022/10/04 01:40:30;;;;;;;;;;;;;;;;;;347142;28;1133;-62
2022/10/04 01:40:45;;;;;;;;;;;;;;;;;;347262;28;1751;-62
2022/10/04 01:40:59;;;;;;;;;;;;;;;;;;347085;28;979;-62
2022/10/04 01:41:10;;;;;;;;;;;;;;;;;;347161;28;801;-62
2022/10/04 01:41:24;;;;;;;;;;;;;;;;;;347233;28;968;-62
2022/10/04 01:41:35;;;;;;;;;;;;;;;;;;347217;28;985;-62
2022/10/04 01:41:59;;;;;;;;;;;;;;;;;;347199;28;975;-62
2022/10/04 01:42:14;;;;;;;;;;;;;;;;;;347285;28;889;-62
2022/10/04 01:42:45;;;;;;;;;;;;;;;;;;347218;28;952;-62
2022/10/04 01:42:59;;;;;;;;;;;;;;;;;;346674;28;1231;-62
2022/10/04 01:43:12;;;;;;;;;;;;;;;;;;347231;28;992;-62
2022/10/04 01:43:26;;;;;;;;;;;;;;;;;;347259;28;830;-62
2022/10/04 01:43:39;;;;;;;;;;;;;;;;;;347173;28;928;-63
2022/10/04 01:43:54;;;;;;;;;;;;;;;;;;347199;28;988;-62
2022/10/04 01:44:08;;;;;;;;;;;;;;;;;;347104;28;936;-62
2022/10/04 01:44:36;;;;;;;;;;;;;;;;;;347223;28;929;-62
2022/10/04 01:44:46;;;;;;;;;;;;;;;;;;347158;28;976;-62
2022/10/04 01:45:02;;;;;;;;;;;;;;;;;;347222;28;1015;-62
2022/10/04 01:45:35;;;;;;;;;;;;;;;;;;347220;28;980;-62
2022/10/04 01:45:47;;;;;;;;;;;;;;;;;;347206;28;956;-62
2022/10/04 01:46:01;;;;;;;;;;;;;;;;;;347209;28;909;-62
2022/10/04 01:46:24;;;;;;;;;;;;;;;;;;347145;28;944;-63
2022/10/04 01:46:35;;;;;;;;;;;;;;;;;;346853;28;1391;-62
2022/10/04 01:46:47;;;;;;;;;;;;;;;;;;347334;28;905;-62
2022/10/04 01:46:59;;;;;;;;;;;;;;;;;;347218;28;837;-62
2022/10/04 01:47:13;;;;;;;;;;;;;;;;;;347203;28;854;-62
2022/10/04 01:47:30;;;;;;;;;;;;;;;;;;347194;28;873;-62
2022/10/04 01:47:42;;;;;;;;;;;;;;;;;;347208;28;984;-62
2022/10/04 01:47:56;;;;;;;;;;;;;;;;;;347158;28;928;-62
2022/10/04 01:48:15;;;;;;;;;;;;;;;;;;347142;28;988;-62
2022/10/04 01:48:28;;;;;;;;;;;;;;;;;;347143;28;933;-62
2022/10/04 01:48:42;;;;;;;;;;;;;;;;;;347190;28;1023;-62
2022/10/04 01:48:53;;;;;;;;;;;;;;;;;;347215;28;943;-62
2022/10/04 01:49:09;;;;;;;;;;;;;;;;;;347256;28;862;-62
2022/10/04 01:49:21;;;;;;;;;;;;;;;;;;347211;28;1024;-62
2022/10/04 01:49:34;;;;;;;;;;;;;;;;;;347201;28;980;-62
2022/10/04 01:49:45;;;;;;;;;;;;;;;;;;347235;28;913;-62